createdAt,value
2018-02-20T00:02:04.953Z,61.97
2018-02-20T00:04:32.819Z,54.37
2018-02-20T00:07:00.724Z,55.80
2018-02-20T00:09:28.611Z,56.43
2018-02-20T00:11:56.525Z,61.67
2018-02-20T00:14:24.612Z,54.90
2018-02-20T00:16:52.484Z,58.97
2018-02-20T00:19:20.384Z,58.57
2018-02-20T00:21:48.356Z,61.90
2018-02-20T00:24:16.211Z,63.03
2018-02-20T00:26:44.167Z,61.20
2018-02-20T00:29:12.078Z,62.33
2018-02-20T00:31:40.023Z,56.53
2018-02-20T00:34:07.950Z,65.23
2018-02-20T00:36:35.825Z,59.63
2018-02-20T00:39:03.774Z,61.67
2018-02-20T00:41:31.700Z,60.03
2018-02-20T00:43:59.701Z,65.57
2018-02-20T00:46:27.564Z,64.30
2018-02-20T00:48:55.485Z,58.00
2018-02-20T00:51:23.369Z,63.77
2018-02-20T00:53:51.271Z,59.00
2018-02-20T00:56:19.195Z,62.90
2018-02-20T00:58:47.113Z,64.00
2018-02-20T01:01:15.031Z,60.60
2018-02-20T01:03:42.916Z,67.33
2018-02-20T01:06:10.920Z,64.43
2018-02-20T01:08:38.908Z,70.53
2018-02-20T01:11:06.897Z,63.90
2018-02-20T01:13:35.054Z,73.43
2018-02-20T01:16:02.976Z,73.90
2018-02-20T01:18:31.016Z,72.90
2018-02-20T01:20:59.005Z,69.83
2018-02-20T01:23:26.865Z,66.93
2018-02-20T01:25:54.798Z,68.27
2018-02-20T01:28:22.674Z,77.30
2018-02-20T01:30:50.633Z,73.73
2018-02-20T01:33:18.542Z,69.37
2018-02-20T01:35:46.522Z,78.50
2018-02-20T01:38:14.415Z,76.80
2018-02-20T01:40:42.446Z,77.50
2018-02-20T01:43:11.304Z,77.93
2018-02-20T01:45:39.216Z,72.90
2018-02-20T01:48:07.197Z,75.00
2018-02-20T01:50:35.184Z,77.00
2018-02-20T01:53:03.179Z,74.00
2018-02-20T01:55:31.055Z,78.63
2018-02-20T01:57:58.963Z,81.53
2018-02-20T02:00:26.897Z,78.17
2018-02-20T02:02:54.789Z,83.33
2018-02-20T02:05:22.756Z,82.00
2018-02-20T02:07:50.636Z,78.53
2018-02-20T02:10:18.517Z,82.80
2018-02-20T02:12:46.490Z,85.10
2018-02-20T02:15:14.409Z,83.27
2018-02-20T02:17:42.309Z,82.33
2018-02-20T02:20:10.194Z,79.17
2018-02-20T02:22:38.145Z,83.13
2018-02-20T02:25:06.016Z,92.00
2018-02-20T02:27:34.019Z,85.63
2018-02-20T02:30:01.918Z,85.17
2018-02-20T02:32:29.818Z,84.00
2018-02-20T02:34:57.770Z,80.20
2018-02-20T02:37:25.654Z,73.80
2018-02-20T02:39:53.562Z,79.70
2018-02-20T02:42:21.449Z,84.20
2018-02-20T02:44:49.358Z,83.53
2018-02-20T02:47:17.286Z,77.77
2018-02-20T02:49:45.279Z,89.07
2018-02-20T02:52:13.140Z,78.47
2018-02-20T02:54:41.090Z,89.20
2018-02-20T02:57:09.091Z,91.23
2018-02-20T02:59:37.033Z,87.80
2018-02-20T03:02:05.015Z,78.47
2018-02-20T03:04:32.907Z,87.00
2018-02-20T03:07:00.894Z,85.20
2018-02-20T03:09:28.934Z,88.30
2018-02-20T03:11:56.898Z,90.20
2018-02-20T03:14:24.816Z,84.40
2018-02-20T03:16:52.705Z,76.00
2018-02-20T03:19:20.653Z,83.67
2018-02-20T03:21:48.501Z,83.67
2018-02-20T03:24:16.352Z,84.10
2018-02-20T03:26:44.315Z,84.67
2018-02-20T03:29:12.336Z,81.70
2018-02-20T03:31:40.265Z,84.80
2018-02-20T03:34:08.170Z,84.63
2018-02-20T03:36:36.147Z,80.37
2018-02-20T03:39:04.146Z,90.40
2018-02-20T03:41:32.022Z,80.73
2018-02-20T03:43:59.901Z,80.30
2018-02-20T03:46:27.867Z,83.27
2018-02-20T03:48:55.719Z,84.60
2018-02-20T03:51:23.604Z,83.33
2018-02-20T03:53:51.473Z,88.23
2018-02-20T03:56:19.369Z,81.90
2018-02-20T03:58:47.269Z,86.27
2018-02-20T04:01:15.153Z,80.20
2018-02-20T04:03:43.035Z,84.67
2018-02-20T04:06:10.948Z,89.73
2018-02-20T04:08:38.865Z,96.03
2018-02-20T04:11:06.805Z,90.23
2018-02-20T04:13:34.728Z,99.53
2018-02-20T04:16:02.630Z,87.87
2018-02-20T04:18:31.521Z,84.20
2018-02-20T04:20:59.499Z,88.07
2018-02-20T04:23:27.356Z,85.30
2018-02-20T04:25:55.251Z,95.47
2018-02-20T04:28:23.285Z,95.87
2018-02-20T04:30:51.154Z,90.77
2018-02-20T04:33:19.123Z,87.97
2018-02-20T04:35:47.025Z,97.60
2018-02-20T04:38:15.000Z,84.97
2018-02-20T04:40:42.968Z,89.77
2018-02-20T04:43:10.889Z,92.40
2018-02-20T04:45:38.804Z,90.33
2018-02-20T04:48:06.675Z,72.93
2018-02-20T04:50:34.559Z,96.23
2018-02-20T04:53:02.497Z,97.53
2018-02-20T04:55:30.373Z,97.47
2018-02-20T04:57:58.277Z,83.50
2018-02-20T05:00:26.146Z,87.00
2018-02-20T05:02:54.032Z,96.53
2018-02-20T05:05:21.902Z,93.70
2018-02-20T05:07:49.826Z,96.97
2018-02-20T05:10:17.760Z,94.97
2018-02-20T05:12:45.664Z,94.43
2018-02-20T05:15:13.599Z,89.70
2018-02-20T05:17:41.478Z,103.30
2018-02-20T05:20:09.445Z,94.67
2018-02-20T05:22:37.408Z,84.13
2018-02-20T05:25:05.283Z,92.20
2018-02-20T05:27:33.167Z,95.17
2018-02-20T05:30:01.065Z,91.70
2018-02-20T05:32:29.090Z,99.33
2018-02-20T05:34:57.010Z,94.27
2018-02-20T05:37:25.044Z,99.43
2018-02-20T05:39:53.271Z,88.50
2018-02-20T05:42:21.216Z,85.13
2018-02-20T05:44:49.718Z,117.13
2018-02-20T05:47:17.650Z,92.17
2018-02-20T07:14:43.566Z,102.17
2018-02-20T07:17:12.268Z,90.03
2018-02-20T07:19:40.121Z,112.07
2018-02-20T07:22:08.010Z,112.83
2018-02-20T07:24:35.889Z,105.47
2018-02-20T07:27:03.746Z,106.17
2018-02-20T07:29:31.663Z,62.93
2018-02-20T07:31:59.523Z,92.00
2018-02-20T07:34:27.505Z,93.30
2018-02-20T07:36:55.395Z,98.87
2018-02-20T07:39:23.258Z,91.87
2018-02-20T07:41:52.436Z,106.80
2018-02-20T07:44:20.352Z,90.63
2018-02-20T07:46:48.219Z,94.60
2018-02-20T07:49:16.106Z,105.73
2018-02-20T07:51:43.969Z,95.90
2018-02-20T07:54:11.900Z,104.50
2018-02-20T07:56:39.816Z,92.77
2018-02-20T07:59:07.756Z,76.07
2018-02-20T08:01:35.611Z,99.03
2018-02-20T08:04:03.543Z,101.23
2018-02-20T08:06:31.393Z,81.63
2018-02-20T08:08:59.357Z,91.90
2018-02-20T08:11:27.288Z,86.97
2018-02-20T08:13:55.125Z,94.50
2018-02-20T08:16:23.035Z,94.57
2018-02-20T08:18:50.940Z,99.20
2018-02-20T08:21:18.790Z,108.53
2018-02-20T08:23:46.756Z,95.57
2018-02-20T08:26:14.745Z,89.43
2018-02-20T08:28:42.699Z,100.23
2018-02-20T08:31:10.545Z,96.43
2018-02-20T08:33:38.428Z,99.90
2018-02-20T08:36:06.365Z,90.33
2018-02-20T08:38:34.348Z,93.13
2018-02-20T08:41:02.332Z,93.10
2018-02-20T08:43:30.289Z,87.50
2018-02-20T08:45:58.163Z,95.33
2018-02-20T08:48:26.080Z,89.97
2018-02-20T08:50:53.934Z,85.43
2018-02-20T08:53:21.789Z,80.83
2018-02-20T08:55:49.672Z,85.10
2018-02-20T08:58:18.072Z,87.80
2018-02-20T09:00:45.956Z,90.90
2018-02-20T09:03:13.858Z,92.73
2018-02-20T09:05:41.721Z,92.47
2018-02-20T09:08:09.586Z,96.13
2018-02-20T09:10:38.704Z,92.00
2018-02-20T09:13:06.547Z,86.07
2018-02-20T09:15:34.447Z,98.50
2018-02-20T09:18:02.437Z,100.43
2018-02-20T09:20:30.359Z,87.17
2018-02-20T09:22:58.300Z,89.23
2018-02-20T09:25:26.232Z,86.17
2018-02-20T09:27:54.098Z,102.10
2018-02-20T09:30:21.981Z,104.70
2018-02-20T09:32:49.854Z,82.57
2018-02-20T09:35:17.734Z,95.70
2018-02-20T09:37:45.627Z,94.57
2018-02-20T09:40:13.484Z,92.67
2018-02-20T09:42:41.377Z,101.40
2018-02-20T09:45:09.349Z,93.37
2018-02-20T09:47:37.341Z,98.50
2018-02-20T09:50:05.193Z,98.90
2018-02-20T09:52:33.058Z,105.70
2018-02-20T09:55:00.911Z,89.67
2018-02-20T09:57:28.860Z,93.53
2018-02-20T09:59:56.755Z,98.90
2018-02-20T10:02:24.684Z,98.10
2018-02-20T10:04:52.543Z,93.57
2018-02-20T10:07:20.454Z,99.53
2018-02-20T10:09:48.415Z,95.50
2018-02-20T10:12:16.306Z,123.17
2018-02-20T10:14:44.157Z,95.10
2018-02-20T10:17:12.024Z,92.90
2018-02-20T10:19:39.935Z,98.80
2018-02-20T10:22:07.838Z,87.83
2018-02-20T10:24:35.802Z,112.50
2018-02-20T10:27:03.757Z,99.03
2018-02-20T10:29:31.639Z,89.23
2018-02-20T10:31:59.476Z,90.97
2018-02-20T10:34:27.342Z,96.67
2018-02-20T10:36:55.253Z,88.60
2018-02-20T10:41:56.878Z,93.23
2018-02-20T10:44:24.744Z,85.77
2018-02-20T10:46:52.657Z,103.03
2018-02-20T10:49:20.581Z,98.40
2018-02-20T10:51:48.528Z,93.33
2018-02-20T10:54:16.395Z,96.20
2018-02-20T10:56:44.305Z,83.10
2018-02-20T10:59:12.205Z,83.87
2018-02-20T11:01:40.186Z,78.63
2018-02-20T11:04:08.124Z,67.60
2018-02-20T11:06:36.020Z,76.93
2018-02-20T11:09:03.904Z,79.80
2018-02-20T11:11:31.950Z,90.10
2018-02-20T11:13:59.841Z,83.97
2018-02-20T11:16:27.731Z,82.87
2018-02-20T11:18:55.719Z,77.13
2018-02-20T11:21:23.695Z,62.13
2018-02-20T11:23:52.395Z,58.10
2018-02-20T11:26:20.296Z,64.63
2018-02-20T11:28:48.167Z,66.40
2018-02-20T11:31:16.044Z,65.70
2018-02-20T11:33:43.958Z,65.70
2018-02-20T11:36:11.831Z,60.00
2018-02-20T11:38:39.751Z,64.33
2018-02-20T11:41:07.661Z,58.70
2018-02-20T11:43:35.575Z,63.70
2018-02-20T11:46:03.456Z,62.63
2018-02-20T11:48:31.368Z,62.13
2018-02-20T11:50:59.358Z,67.53
2018-02-20T11:53:27.239Z,64.07
2018-02-20T11:55:55.218Z,62.07
2018-02-20T11:58:23.135Z,56.67
2018-02-20T12:00:51.031Z,60.80
2018-02-20T12:03:18.949Z,64.27
2018-02-20T12:05:46.830Z,57.73
2018-02-20T12:08:14.759Z,57.97
2018-02-20T12:10:42.664Z,59.03
2018-02-20T12:13:10.574Z,58.30
2018-02-20T12:15:38.495Z,60.00
2018-02-20T12:18:06.399Z,59.40
2018-02-20T12:20:34.294Z,52.97
2018-02-20T12:23:02.176Z,54.20
2018-02-20T12:25:30.098Z,60.80
2018-02-20T12:27:57.980Z,57.97
2018-02-20T12:30:25.888Z,54.83
2018-02-20T12:32:53.788Z,53.03
2018-02-20T12:35:21.684Z,46.20
2018-02-20T12:37:49.570Z,52.20
2018-02-20T12:40:17.444Z,50.43
2018-02-20T12:42:45.338Z,54.93
2018-02-20T12:45:13.244Z,47.20
2018-02-20T12:47:41.117Z,50.00
2018-02-20T12:50:09.087Z,49.83
2018-02-20T12:52:37.028Z,52.43
2018-02-20T12:55:05.671Z,47.23
2018-02-20T12:57:33.588Z,46.50
2018-02-20T13:00:01.499Z,46.23
2018-02-20T13:02:29.423Z,56.73
2018-02-20T13:04:57.395Z,49.77
2018-02-20T13:07:26.159Z,54.67
2018-02-20T13:09:54.055Z,51.90
2018-02-20T13:12:21.966Z,48.43
2018-02-20T13:14:49.997Z,45.90
2018-02-20T13:17:17.901Z,45.33
2018-02-20T13:19:45.792Z,46.10
2018-02-20T13:22:13.692Z,55.63
2018-02-20T13:24:41.625Z,45.37
2018-02-20T13:27:09.581Z,47.40
2018-02-20T13:29:37.471Z,49.90
2018-02-20T13:32:05.590Z,38.27
2018-02-20T13:34:33.501Z,48.40
2018-02-20T13:37:01.391Z,46.73
2018-02-20T13:39:29.341Z,48.50
2018-02-20T13:41:57.314Z,41.20
2018-02-20T13:44:25.300Z,45.63
2018-02-20T13:46:53.325Z,44.77
2018-02-20T13:49:21.254Z,49.23
2018-02-20T13:51:49.122Z,53.63
2018-02-20T13:54:17.031Z,51.57
2018-02-20T13:56:44.944Z,51.50
2018-02-20T13:59:12.814Z,59.17
2018-02-20T14:01:40.708Z,46.83
2018-02-20T14:04:08.615Z,45.43
2018-02-20T14:06:36.537Z,47.60
2018-02-20T14:09:04.411Z,46.17
2018-02-20T14:11:32.369Z,54.63
2018-02-20T14:14:00.406Z,47.37
2018-02-20T14:16:28.338Z,51.40
2018-02-20T14:18:56.288Z,46.73
2018-02-20T14:21:24.264Z,48.63
2018-02-20T14:23:52.201Z,48.17
2018-02-20T14:26:20.266Z,86.00
2018-02-20T14:28:48.160Z,54.60
2018-02-20T14:31:16.059Z,44.50
2018-02-20T14:33:43.951Z,47.10
2018-02-20T14:36:11.840Z,45.47
2018-02-20T14:38:39.784Z,47.03
2018-02-20T14:41:07.705Z,47.37
2018-02-20T14:43:35.595Z,48.13
2018-02-20T14:46:03.540Z,45.00
2018-02-20T14:48:31.520Z,43.50
2018-02-20T14:50:59.404Z,41.00
2018-02-20T14:53:27.426Z,45.10
2018-02-20T14:55:55.314Z,43.80
2018-02-20T14:58:23.214Z,38.77
2018-02-20T15:00:52.941Z,35.97
2018-02-20T15:03:20.827Z,30.30
2018-02-20T15:05:48.752Z,35.03
2018-02-20T15:08:16.689Z,34.80
2018-02-20T15:10:44.571Z,32.53
2018-02-20T15:13:12.481Z,38.60
2018-02-20T15:15:40.429Z,33.07
2018-02-20T15:18:08.369Z,34.43
2018-02-20T15:20:36.250Z,32.00
2018-02-20T15:23:04.160Z,30.40
2018-02-20T15:25:32.249Z,30.43
2018-02-20T15:28:00.184Z,34.33
2018-02-20T15:30:28.083Z,33.13
2018-02-20T15:32:56.021Z,40.50
2018-02-20T15:35:23.937Z,29.13
2018-02-20T15:37:51.901Z,35.33
2018-02-20T15:40:19.804Z,35.30
2018-02-20T15:42:47.693Z,34.63
2018-02-20T15:45:15.588Z,32.07
2018-02-20T15:47:44.119Z,36.23
2018-02-20T15:50:12.016Z,30.57
2018-02-20T15:52:39.903Z,31.40
2018-02-20T15:55:07.821Z,28.80
2018-02-20T15:57:36.531Z,33.33
2018-02-20T16:00:04.465Z,33.30
2018-02-20T16:02:32.429Z,29.63
2018-02-20T16:05:00.346Z,35.10
2018-02-20T16:07:28.253Z,29.40
2018-02-20T16:09:56.200Z,31.70
2018-02-20T16:12:24.108Z,35.63
2018-02-20T16:14:52.008Z,35.73
2018-02-20T16:17:19.936Z,35.27
2018-02-20T16:19:47.886Z,30.50
2018-02-20T16:22:15.775Z,32.60
2018-02-20T16:24:43.712Z,33.80
2018-02-20T16:27:11.603Z,36.77
2018-02-20T16:29:39.512Z,33.90
2018-02-20T16:32:07.392Z,33.53
2018-02-20T16:34:35.353Z,29.67
2018-02-20T16:37:03.298Z,37.17
2018-02-20T16:39:31.196Z,28.67
2018-02-20T16:41:59.105Z,28.23
2018-02-20T16:44:27.022Z,31.43
2018-02-20T16:46:54.962Z,33.57
2018-02-20T16:49:23.936Z,28.87
2018-02-20T16:51:51.836Z,31.10
2018-02-20T16:54:19.964Z,30.73
2018-02-20T16:56:47.829Z,28.33
2018-02-20T16:59:15.735Z,29.70
2018-02-20T17:01:43.625Z,29.97
2018-02-20T17:04:11.499Z,36.57
2018-02-20T17:06:39.497Z,30.90
2018-02-20T17:09:07.435Z,26.87
2018-02-20T17:11:35.332Z,32.00
2018-02-20T17:14:03.256Z,34.20
2018-02-20T17:16:31.137Z,26.90
2018-02-20T17:18:59.024Z,29.90
2018-02-20T17:21:26.974Z,31.53
2018-02-20T17:23:57.503Z,42.60
2018-02-20T17:26:25.404Z,33.47
2018-02-20T17:28:53.348Z,34.63
2018-02-20T17:31:22.221Z,32.80
2018-02-20T17:33:50.144Z,37.47
2018-02-20T17:36:18.022Z,30.80
2018-02-20T17:38:45.929Z,35.33
2018-02-20T17:41:13.852Z,35.03
2018-02-20T17:43:41.732Z,36.63
2018-02-20T17:46:09.637Z,38.00
2018-02-20T17:48:37.588Z,34.17
2018-02-20T17:51:05.465Z,41.97
2018-02-20T17:53:33.396Z,35.53
2018-02-20T17:56:01.702Z,54.23
2018-02-20T17:58:29.634Z,31.00
2018-02-20T18:00:57.508Z,38.93
2018-02-20T18:03:25.424Z,37.73
2018-02-20T18:05:53.368Z,27.87
2018-02-20T18:08:21.244Z,38.00
2018-02-20T18:10:49.205Z,29.80
2018-02-20T18:13:17.088Z,34.27
2018-02-20T18:15:44.972Z,32.77
2018-02-20T18:18:12.924Z,35.43
2018-02-20T18:20:40.800Z,32.37
2018-02-20T18:23:08.729Z,28.63
2018-02-20T18:25:36.917Z,35.40
2018-02-20T18:28:04.880Z,36.70
2018-02-20T18:30:32.772Z,33.50
2018-02-20T18:33:01.878Z,30.47
2018-02-20T18:35:29.905Z,35.17
2018-02-20T18:37:57.833Z,32.80
2018-02-20T18:40:25.768Z,42.00
2018-02-20T18:42:53.736Z,40.03
2018-02-20T18:45:21.780Z,34.60
2018-02-20T18:47:49.747Z,35.33
2018-02-20T18:50:19.228Z,33.07
2018-02-20T18:52:47.128Z,31.97
2018-02-20T18:55:15.057Z,35.40
2018-02-20T18:57:43.000Z,41.47
2018-02-20T19:00:10.919Z,36.63
2018-02-20T19:02:38.777Z,33.97
2018-02-20T19:05:06.703Z,41.83
2018-02-20T19:07:34.608Z,33.03
2018-02-20T19:10:02.515Z,36.57
2018-02-20T19:12:30.419Z,35.47
2018-02-20T19:14:58.296Z,38.10
2018-02-20T19:17:26.280Z,39.83
2018-02-20T19:19:54.216Z,45.53
2018-02-20T19:22:22.121Z,39.60
2018-02-20T19:24:50.020Z,42.60
2018-02-20T19:27:17.933Z,38.00
2018-02-20T19:29:45.850Z,38.00
2018-02-20T19:32:13.743Z,38.83
2018-02-20T19:34:41.744Z,40.30
2018-02-20T19:37:09.639Z,41.90
2018-02-20T19:39:37.580Z,46.60
2018-02-20T19:42:05.509Z,49.27
2018-02-20T19:44:33.392Z,39.70
2018-02-20T19:47:01.443Z,41.10
2018-02-20T19:49:29.398Z,43.27
2018-02-20T19:51:57.387Z,41.83
2018-02-20T19:54:25.335Z,43.00
2018-02-20T19:56:53.202Z,43.57
2018-02-20T19:59:21.117Z,48.40
2018-02-20T20:01:49.043Z,50.47
2018-02-20T20:04:16.961Z,48.57
2018-02-20T20:06:45.145Z,47.37
2018-02-20T20:09:13.273Z,49.13
2018-02-20T20:11:41.208Z,46.43
2018-02-20T20:14:09.100Z,52.83
2018-02-20T20:16:38.085Z,46.30
2018-02-20T20:19:06.055Z,50.30
2018-02-20T20:21:34.104Z,53.23
2018-02-20T20:24:02.083Z,46.47
2018-02-20T20:26:29.970Z,47.90
2018-02-20T20:28:58.027Z,51.23
2018-02-20T20:31:25.954Z,52.40
2018-02-20T20:33:54.341Z,55.60
2018-02-20T20:36:22.315Z,49.10
2018-02-20T20:38:50.246Z,47.00
2018-02-20T20:41:18.251Z,58.50
2018-02-20T20:43:46.259Z,59.27
2018-02-20T20:46:15.012Z,52.20
2018-02-20T20:48:43.012Z,58.80
2018-02-20T20:51:11.846Z,53.47
2018-02-20T20:53:39.840Z,51.00
2018-02-20T20:56:07.781Z,51.97
2018-02-20T20:58:35.658Z,59.13
2018-02-20T21:01:04.501Z,58.63
2018-02-20T21:03:32.448Z,65.90
2018-02-20T21:06:00.377Z,54.37
2018-02-20T21:08:28.321Z,58.53
2018-02-20T21:10:56.321Z,53.77
2018-02-20T21:13:24.238Z,54.30
2018-02-20T21:15:52.515Z,59.60
2018-02-20T21:18:20.481Z,54.33
2018-02-20T21:20:51.452Z,54.50
2018-02-20T21:23:19.518Z,57.00
2018-02-20T21:25:47.485Z,54.47
2018-02-20T21:28:15.545Z,58.73
2018-02-20T21:30:43.721Z,53.10
2018-02-20T21:33:11.732Z,61.30
2018-02-20T21:35:39.649Z,59.60
2018-02-20T21:38:07.876Z,63.63
2018-02-20T21:40:36.021Z,56.53
2018-02-20T21:43:04.088Z,54.23
2018-02-20T21:45:32.122Z,56.70
2018-02-20T21:48:00.387Z,56.83
2018-02-20T21:50:28.595Z,53.70
2018-02-20T21:52:56.967Z,59.43
2018-02-20T21:55:26.014Z,54.80
2018-02-20T21:57:54.170Z,59.07
2018-02-20T22:00:22.076Z,53.80
2018-02-20T22:02:50.059Z,55.07
2018-02-20T22:05:18.135Z,54.17
2018-02-20T22:07:46.128Z,47.97
2018-02-20T22:10:14.069Z,53.90
2018-02-20T22:12:41.957Z,47.70
2018-02-20T22:15:09.861Z,48.53
2018-02-20T22:17:37.764Z,47.77
2018-02-20T22:20:05.700Z,45.73
2018-02-20T22:22:33.736Z,45.90
2018-02-20T22:25:01.629Z,42.60
2018-02-20T22:27:29.610Z,47.20
2018-02-20T22:29:57.519Z,56.03
2018-02-20T22:32:25.445Z,51.27
2018-02-20T22:34:53.371Z,54.37
2018-02-20T22:37:21.242Z,50.23
2018-02-20T22:39:49.121Z,44.70
2018-02-20T22:42:17.752Z,46.67
2018-02-20T22:44:45.682Z,40.53
2018-02-20T22:47:13.756Z,44.53
2018-02-20T22:49:41.742Z,51.47
2018-02-20T22:52:09.632Z,41.13
2018-02-20T22:54:38.456Z,42.97
2018-02-20T22:57:07.314Z,47.23
2018-02-20T22:59:35.184Z,49.10
2018-02-20T23:02:03.643Z,43.30
2018-02-20T23:04:32.688Z,45.23
2018-02-20T23:07:00.669Z,43.10
2018-02-20T23:09:28.602Z,43.93
2018-02-20T23:11:56.576Z,47.30
2018-02-20T23:14:25.193Z,43.60
2018-02-20T23:16:53.604Z,55.17
2018-02-20T23:19:21.526Z,42.73
2018-02-20T23:21:49.424Z,48.20
2018-02-20T23:24:18.231Z,42.20
2018-02-20T23:26:46.142Z,41.67
2018-02-20T23:29:14.087Z,44.30
2018-02-20T23:31:41.964Z,41.77
2018-02-20T23:34:09.966Z,46.40
2018-02-20T23:36:37.885Z,49.10
2018-02-20T23:39:05.785Z,44.17
2018-02-20T23:41:33.725Z,49.40
2018-02-20T23:44:01.729Z,45.83
2018-02-20T23:46:31.787Z,43.07
2018-02-20T23:49:00.003Z,42.73
2018-02-20T23:51:33.920Z,43.23
2018-02-20T23:54:01.793Z,49.60
2018-02-20T23:56:31.941Z,44.70
2018-02-20T23:59:07.166Z,46.10
